Simon Bolivar, Colombia

10:21 PM COT en Noviembre 22, 2014 (GMT -0500)
Simon Bolivar | Change Station
CLOSE
Current Station
Aeropuerto
Location: Santa Marta,
Altura: 13 ft
Estaciones meteorológicas cercanas

Alt 13 ft 11.12 °N, 74.23 °W | Updated 21 minutes ago

Drizzle
Llovizna
77 ° F
Sensación térmica 77 ° F
N
0
Viento Variable Viento desde Norte

Hoy
Alta -- | Baja -- ° F
--% Posibilidad de precipitaciones
Ayer
Alta -- | Baja -- ° F
Precip. -- pul
5:55 AM 5:30 PM
Luna nueva, 0% visible
Presión 29.80 pul
Visibilidad 6.2 Millas
Nubes Baja 2000 ft
Muy nublado 7000 ft
Punto de rocío 73 ° F
Humedad 89%
Precipitaciones 0.00 pul
Espesor de la nieve No disponible.
UV 0 de una escala de 12
Polen No disponible.
Calidad del aire No disponible.
Flu Activity No disponible.
METAR SKSM 230300Z 00000KT 9999 DZ FEW020 BKN070 25/23 A2980 RETS

More Conditions Fewer Conditions

Presión 29.80 pul
Visibilidad 6.2 Millas
Nubes Baja 2000 ft
Muy nublado 7000 ft
Punto de rocío 73 ° F
Humedad 89%
Precipitaciones 0.00 pul
Espesor de la nieve No disponible.
UV 0 de una escala de 12
Polen No disponible.
Calidad del aire No disponible.
Flu Activity No disponible.
METAR SKSM 230300Z 00000KT 9999 DZ FEW020 BKN070 25/23 A2980 RETS

More Conditions Fewer Conditions

10-Day Weather Forecast

Almanac

Astronomía

Nov. 22, 2014 Salida Puesta
Hora real
Crepúsculo civil
Crepúsculo náutico
Crepúsculo astronómico
Luna
Horas de luz
Horas de luz
Tomorrow will be .
, % of the Moon is Illuminated

Extremos de hoy

Máximos del país Bajas del país

Community

WunderPhotos

Upload Photos

1,772,990 ¡fotos cargadas!

WunderBlogs® & News

Nearby

Calidad del aire

  Calidad del aire Índice AQ Contaminante
Not available.

Grosos de nieve

Estación Profundido Altura

Actividad de terremotos

Ciudad Distance Mag. Tiempo y dato
Magnitud mínima muestra es 2,5.

Temperaturas de aguas costeras

Lugar Temperatura

Estaciones meteorológicas cercanas